• Join FlightAware (Why Join?)
  • Login
  • US Flag 
03:48PM EDT


 

Airport Tracker/Info


-or-


 

Live Flight TrackerFlight Track Log ✈ SWA3213 ✈ 17-Jul-2013 ✈ KTPA - KSDF

Flight Track Log - Related Links

Times and Time Zones

All times are in EDT time to prevent confusion due to time zone crossing. See the SWA3213 flight status page for this flight to view local times or setup timezone preferences in your user account.

Time Position Orientation Groundspeed Altitude Reporting Facility
EDT Latitude Longitude Course Direction KTS MPH feet Rate Location/Type
09:51AM 28.0000 -82.5333 North 155 178 1,000  Level Tampa TRACON
09:53AM 28.1264 -82.5442 356° North 230 265 5,300 2,520 Climbing Jacksonville Center
09:54AM 28.1975 -82.5842 334° Northwest 255 293 8,700 2,820 Climbing Jacksonville Center
09:55AM 28.2706 -82.6311 330° Northwest 279 321 11,000 2,580 Climbing Jacksonville Center
09:56AM 28.3583 -82.6778 335° Northwest 314 361 13,900 2,700 Climbing Jacksonville Center
09:57AM 28.5565 -82.8000 North  Level FlightAware Approximate
09:57AM 28.4525 -82.7061 345° North 332 382 16,500  Level Jacksonville Center
09:58AM 28.5525 -82.7389 344° North 352 405 18,400 1,980 Climbing Jacksonville Center
09:59AM 28.6550 -82.7694 345° North 359 413 20,500 2,040 Climbing Jacksonville Center
10:00AM 28.7614 -82.7956 348° North 374 430 22,500 1,800 Climbing Jacksonville Center
10:01AM 28.8700 -82.8286 345° North 392 451 24,200 1,620 Climbing Jacksonville Center
10:02AM 28.9825 -82.8617 346° North 404 465 25,800 1,500 Climbing Jacksonville Center
10:03AM 29.0975 -82.8972 345° North 414 476 27,300 1,500 Climbing Jacksonville Center
10:04AM 29.2164 -82.9331 345° North 421 484 28,800 1,620 Climbing Jacksonville Center
10:05AM 29.3311 -82.9689 345° North 421 484 30,600 1,500 Climbing Jacksonville Center
10:06AM 29.4439 -83.0022 346° North 421 484 31,900 1,080 Climbing Jacksonville Center
10:07AM 29.5525 -83.0383 344° North 427 491 32,800 1,200 Climbing Jacksonville Center
10:08AM 29.6650 -83.0814 342° North 432 497 34,300 1,200 Climbing Jacksonville Center
10:09AM 29.7736 -83.1319 338° Northwest 426 490 35,300 840 Climbing Jacksonville Center
10:10AM 29.8819 -83.1825 338° Northwest 426 490 36,000 300 Climbing Jacksonville Center
10:11AM 29.9967 -83.2381 337° Northwest 426 490 36,000  Level Jacksonville Center
10:12AM 30.1094 -83.2864 340° North 436 502 36,000  Level Jacksonville Center
10:13AM 30.2239 -83.3397 338° Northwest 436 502 36,000  Level Jacksonville Center
10:14AM 30.3344 -83.3908 338° Northwest 430 495 36,000  Level Jacksonville Center
10:15AM 30.4469 -83.4444 338° Northwest 430 495 36,000  Level Jacksonville Center
10:16AM 30.5594 -83.4981 338° Northwest 430 495 36,000  Level Jacksonville Center
10:17AM 30.6700 -83.5494 338° Northwest 430 495 36,000  Level Jacksonville Center
10:18AM 30.7761 -83.6011 337° Northwest 425 489 36,000  Level Jacksonville Center
10:19AM 30.8864 -83.6528 338° Northwest 425 489 36,000  Level Jacksonville Center
10:20AM 30.9947 -83.7069 337° Northwest 425 489 36,000  Level Jacksonville Center
10:22AM 31.1767 -83.7936 338° Northwest 427 491 36,000  Level Atlanta Center
10:23AM 31.2831 -83.8444 338° Northwest 427 491 36,000  Level Atlanta Center
10:24AM 31.3939 -83.9003 337° Northwest 422 486 36,000  Level Atlanta Center
10:25AM 31.5025 -83.9536 337° Northwest 422 486 36,000  Level Atlanta Center
10:26AM 31.6172 -83.9853 347° North 417 480 36,000  Level Atlanta Center
10:27AM 31.7467 -84.0119 350° North 417 480 36,000  Level Atlanta Center
10:28AM 31.8636 -84.0389 349° North 417 480 36,000  Level Atlanta Center
10:29AM 31.9803 -84.0633 350° North 417 480 36,000  Level Atlanta Center
10:30AM 32.0953 -84.0878 350° North 417 480 36,000  Level Atlanta Center
10:31AM 32.2119 -84.1125 350° North 417 480 36,000  Level Atlanta Center
10:32AM 32.3311 -84.1397 349° North 423 487 36,000  Level Atlanta Center
10:33AM 32.4458 -84.1644 350° North 423 487 36,000  Level Atlanta Center
10:34AM 32.5647 -84.1942 348° North 428 493 36,000  Level Atlanta Center
10:35AM 32.6836 -84.2214 349° North 428 493 36,000  Level Atlanta Center
10:36AM 32.8047 -84.2514 348° North 428 493 36,000  Level Atlanta Center
10:37AM 32.9236 -84.2764 350° North 433 498 36,000  Level Atlanta Center
10:38AM 33.0447 -84.3039 349° North 438 504 36,000  Level Atlanta Center
10:39AM 33.1656 -84.3317 349° North 438 504 36,000  Level Atlanta Center
10:40AM 33.2742 -84.3569 349° North 433 498 36,000  Level Atlanta Center
10:41AM 33.3950 -84.3822 350° North 438 504 36,000  Level Atlanta Center
10:42AM 33.5181 -84.4125 348° North 438 504 36,000  Level Atlanta Center
10:43AM 33.6517 -84.4431 349° North 450 518 36,000  Level Atlanta Center
10:44AM 33.7789 -84.4736 349° North 450 518 36,000  Level Atlanta Center
10:45AM 33.9019 -84.5042 348° North 445 512 36,000  Level Atlanta Center
10:46AM 34.0269 -84.5350 348° North 453 521 36,000  Level Atlanta Center
10:47AM 34.1564 -84.5633 350° North 467 537 36,000  Level Atlanta Center
10:48AM 34.2689 -84.5892 349° North 467 537 36,000  Level Atlanta Center
10:49AM 34.3961 -84.6203 349° North 459 528 36,000  Level Atlanta Center
10:50AM 34.5192 -84.6514 348° North 453 521 36,000  Level Atlanta Center
10:51AM 34.6442 -84.6800 349° North 453 521 36,000  Level Atlanta Center
10:52AM 34.7775 -84.7167 347° North 448 516 36,000 -300 Level Atlanta Center
10:53AM 34.9025 -84.7478 348° North 448 516 35,400 -540 Descending Atlanta Center
10:54AM 35.0233 -84.7769 349° North 448 516 35,000 -420 Descending Atlanta Center
10:55AM 35.1400 -84.8033 350° North 436 502 34,600 -540 Descending Atlanta Center
10:56AM 35.2608 -84.8297 350° North 431 496 34,000 -300 Descending Atlanta Center
10:57AM 35.3861 -84.8361 358° North 431 496 34,000  Level Atlanta Center
10:58AM 35.5092 -84.8425 358° North 431 496 34,000  Level Atlanta Center
10:59AM 35.6281 -84.8461 359° North 431 496 34,000  Level Atlanta Center
11:00AM 35.7469 -84.8525 358° North 431 496 34,000  Level Atlanta Center
11:02AM 35.9594 -84.8628 358° North 434 499 34,000 -180 Level Indianapolis Center
11:03AM 36.0778 -84.8694 357° North 428 493 33,500 -1,800 Descending Indianapolis Center
11:04AM 36.2203 -84.8769 358° North 426 490 30,300 -1,740 Descending Indianapolis Center
11:05AM 36.3414 -84.8831 358° North 433 498 30,000 -360 Descending Indianapolis Center
11:06AM 36.4639 -84.8897 357° North 440 506 29,600 -720 Descending Indianapolis Center
11:07AM 36.5872 -84.8969 357° North 442 509 28,600 -1,080 Descending Indianapolis Center
11:08AM 36.7058 -84.9031 358° North 431 496 27,500 -1,080 Descending Indianapolis Center
11:09AM 36.8208 -84.9094 357° North 415 478 26,500 -1,080 Descending Indianapolis Center
11:10AM 36.9564 -84.9161 358° North 406 467 25,300 -1,140 Descending Indianapolis Center
11:11AM 37.0572 -84.9211 358° North 406 467 24,200 -2,580 Descending Indianapolis Center
11:12AM 37.1747 -84.9269 358° North 419 482 20,000 -3,180 Descending Indianapolis Center
11:13AM 37.3094 -84.9350 357° North 410 472 17,800 -2,040 Descending Indianapolis Center
11:14AM 37.4161 -84.9403 358° North 385 443 15,900 -1,980 Descending Indianapolis Center
11:15AM 37.5167 -84.9453 358° North 364 419 13,800 -2,040 Descending Indianapolis Center
11:16AM 37.6114 -84.9531 356° North 342 394 11,700 -1,260 Descending Indianapolis Center
11:18AM 37.7456 -85.0794 323° Northwest 298 343 10,000 -600 Descending Indianapolis Center
11:19AM 37.8003 -85.1597 311° West 302 348 10,000 -540 Level Indianapolis Center
11:20AM 37.8358 -85.2706 292° West 289 333 8,900 -1,260 Descending Indianapolis Center
11:21AM 37.8636 -85.3622 291° West 280 322 7,500 -1,320 Descending Indianapolis Center
11:22AM 37.8933 -85.4514 293° West 275 316 6,200 -1,320 Descending Indianapolis Center
11:23AM 37.9200 -85.5375 291° West 267 307 4,800 -1,260 Descending Indianapolis Center
11:24AM 37.9486 -85.6247 293° West 268 308 3,700 -900 Descending Indianapolis Center
11:25AM 37.9939 -85.6817 315° West 265 305 3,000 -480 Descending Indianapolis Center
11:26AM 38.0453 -85.7019 343° North 220 253 2,800 -660 Descending Indianapolis Center
11:28AM 38.1635 -85.7337 348° North  Level Estimated
11:29AM 38.1333 -85.7333 348° North 137 158 1,000  Level Louisville TRACON
11:31AM 38.1724 -85.7295 208° Southwest  Level FlightAware Approximate